sensor_id;sensor_type;location;lat;lon;timestamp;pressure;altitude;pressure_sealevel;temperature;humidity
25560;BME280;13450;49.374;8.584;2022-07-10T00:01:51;101198.31;;;16.95;100.00
25560;BME280;13450;49.374;8.584;2022-07-10T00:04:16;101193.31;;;16.92;100.00
25560;BME280;13450;49.374;8.584;2022-07-10T00:06:46;101191.25;;;16.87;100.00
25560;BME280;13450;49.374;8.584;2022-07-10T00:09:14;101194.56;;;16.82;100.00
25560;BME280;13450;49.374;8.584;2022-07-10T00:11:40;101188.75;;;16.85;100.00
25560;BME280;13450;49.374;8.584;2022-07-10T00:14:05;101194.38;;;16.84;100.00
25560;BME280;13450;49.374;8.584;2022-07-10T00:16:31;101191.47;;;16.85;100.00
25560;BME280;13450;49.374;8.584;2022-07-10T00:18:56;101191.47;;;16.85;100.00
25560;BME280;13450;49.374;8.584;2022-07-10T00:21:22;101197.72;;;16.86;100.00
25560;BME280;13450;49.374;8.584;2022-07-10T00:23:47;101199.97;;;16.89;100.00
25560;BME280;13450;49.374;8.584;2022-07-10T00:26:12;101196.88;;;16.92;100.00
25560;BME280;13450;49.374;8.584;2022-07-10T00:28:37;101199.97;;;16.96;100.00
25560;BME280;13450;49.374;8.584;2022-07-10T00:31:03;101198.31;;;16.95;100.00
25560;BME280;13450;49.374;8.584;2022-07-10T00:33:28;101203.31;;;16.98;100.00
25560;BME280;13450;49.374;8.584;2022-07-10T00:35:56;101196.00;;;16.98;100.00
25560;BME280;13450;49.374;8.584;2022-07-10T00:38:21;101199.16;;;16.95;100.00
25560;BME280;13450;49.374;8.584;2022-07-10T00:40:46;101196.66;;;16.94;100.00
25560;BME280;13450;49.374;8.584;2022-07-10T00:43:15;101197.50;;;16.88;100.00
25560;BME280;13450;49.374;8.584;2022-07-10T00:45:40;101203.31;;;16.84;100.00
25560;BME280;13450;49.374;8.584;2022-07-10T00:48:06;101195.00;;;16.79;100.00
25560;BME280;13450;49.374;8.584;2022-07-10T00:50:34;101200.41;;;16.79;100.00
25560;BME280;13450;49.374;8.584;2022-07-10T00:53:00;101197.50;;;16.74;100.00
25560;BME280;13450;49.374;8.584;2022-07-10T00:55:26;101196.66;;;16.73;100.00
25560;BME280;13450;49.374;8.584;2022-07-10T00:57:51;101202.47;;;16.77;100.00
25560;BME280;13450;49.374;8.584;2022-07-10T01:00:19;101200.63;;;16.71;100.00
25560;BME280;13450;49.374;8.584;2022-07-10T01:02:45;101199.56;;;16.72;100.00
25560;BME280;13450;49.374;8.584;2022-07-10T01:05:13;101203.53;;;16.69;100.00
25560;BME280;13450;49.374;8.584;2022-07-10T01:07:39;101200.41;;;16.66;100.00
25560;BME280;13450;49.374;8.584;2022-07-10T01:10:07;101200.81;;;16.63;100.00
25560;BME280;13450;49.374;8.584;2022-07-10T01:12:33;101200.81;;;16.63;100.00
25560;BME280;13450;49.374;8.584;2022-07-10T01:14:59;101199.78;;;16.57;100.00
25560;BME280;13450;49.374;8.584;2022-07-10T01:17:25;101203.72;;;16.54;100.00
25560;BME280;13450;49.374;8.584;2022-07-10T01:19:51;101207.47;;;16.53;100.00
25560;BME280;13450;49.374;8.584;2022-07-10T01:22:18;101200.19;;;16.47;100.00
25560;BME280;13450;49.374;8.584;2022-07-10T01:24:44;101214.09;;;16.44;100.00
25560;BME280;13450;49.374;8.584;2022-07-10T01:27:09;101201.84;;;16.41;100.00
25560;BME280;13450;49.374;8.584;2022-07-10T01:29:35;101207.84;;;16.37;100.00
25560;BME280;13450;49.374;8.584;2022-07-10T01:32:01;101210.34;;;16.31;100.00
25560;BME280;13450;49.374;8.584;2022-07-10T01:34:27;101211.59;;;16.29;100.00
25560;BME280;13450;49.374;8.584;2022-07-10T01:36:53;101213.88;;;16.25;100.00
25560;BME280;13450;49.374;8.584;2022-07-10T01:39:18;101216.97;;;16.22;100.00
25560;BME280;13450;49.374;8.584;2022-07-10T01:41:43;101217.59;;;16.24;100.00
25560;BME280;13450;49.374;8.584;2022-07-10T01:44:09;101215.09;;;16.23;100.00
25560;BME280;13450;49.374;8.584;2022-07-10T01:46:42;101219.88;;;16.27;100.00
25560;BME280;13450;49.374;8.584;2022-07-10T01:49:13;101221.53;;;16.28;100.00
25560;BME280;13450;49.374;8.584;2022-07-10T01:51:38;101229.88;;;16.33;100.00
25560;BME280;13450;49.374;8.584;2022-07-10T01:54:03;101220.75;;;16.34;100.00
25560;BME280;13450;49.374;8.584;2022-07-10T01:56:29;101228.19;;;16.32;100.00
25560;BME280;13450;49.374;8.584;2022-07-10T01:58:55;101224.03;;;16.30;100.00
25560;BME280;13450;49.374;8.584;2022-07-10T02:01:22;101227.97;;;16.27;100.00
25560;BME280;13450;49.374;8.584;2022-07-10T02:03:48;101229.03;;;16.26;100.00
25560;BME280;13450;49.374;8.584;2022-07-10T02:06:32;101231.09;;;16.24;100.00
25560;BME280;13450;49.374;8.584;2022-07-10T02:08:57;101230.28;;;16.24;100.00
25560;BME280;13450;49.374;8.584;2022-07-10T02:11:22;101238.16;;;16.25;100.00
25560;BME280;13450;49.374;8.584;2022-07-10T02:13:47;101238.97;;;16.26;100.00
25560;BME280;13450;49.374;8.584;2022-07-10T02:16:13;101241.88;;;16.24;100.00
25560;BME280;13450;49.374;8.584;2022-07-10T02:18:39;101240.88;;;16.25;100.00
25560;BME280;13450;49.374;8.584;2022-07-10T02:21:04;101239.19;;;16.24;100.00
25560;BME280;13450;49.374;8.584;2022-07-10T02:23:30;101237.53;;;16.23;100.00
25560;BME280;13450;49.374;8.584;2022-07-10T02:25:55;101238.56;;;16.22;100.00
25560;BME280;13450;49.374;8.584;2022-07-10T02:28:20;101237.31;;;16.25;100.00
25560;BME280;13450;49.374;8.584;2022-07-10T02:30:46;101237.53;;;16.23;100.00
25560;BME280;13450;49.374;8.584;2022-07-10T02:33:11;101243.56;;;16.25;100.00
25560;BME280;13450;49.374;8.584;2022-07-10T02:35:39;101248.97;;;16.25;100.00
25560;BME280;13450;49.374;8.584;2022-07-10T02:38:04;101248.97;;;16.25;100.00
25560;BME280;13450;49.374;8.584;2022-07-10T02:40:30;101251.47;;;16.27;100.00
25560;BME280;13450;49.374;8.584;2022-07-10T02:42:55;101244.00;;;16.29;100.00
25560;BME280;13450;49.374;8.584;2022-07-10T02:45:22;101245.66;;;16.30;100.00
25560;BME280;13450;49.374;8.584;2022-07-10T02:47:48;101242.13;;;16.29;100.00
25560;BME280;13450;49.374;8.584;2022-07-10T02:50:13;101249.00;;;16.32;100.00
25560;BME280;13450;49.374;8.584;2022-07-10T02:52:38;101249.00;;;16.32;100.00
25560;BME280;13450;49.374;8.584;2022-07-10T02:55:04;101248.16;;;16.31;100.00
25560;BME280;13450;49.374;8.584;2022-07-10T02:57:29;101251.25;;;16.28;100.00
25560;BME280;13450;49.374;8.584;2022-07-10T02:59:55;101251.25;;;16.28;100.00
25560;BME280;13450;49.374;8.584;2022-07-10T03:02:20;101253.13;;;16.28;100.00
25560;BME280;13450;49.374;8.584;2022-07-10T03:04:45;101249.78;;;16.26;100.00
25560;BME280;13450;49.374;8.584;2022-07-10T03:07:10;101253.31;;;16.26;100.00
25560;BME280;13450;49.374;8.584;2022-07-10T03:09:36;101250.63;;;16.26;100.00
25560;BME280;13450;49.374;8.584;2022-07-10T03:12:01;101256.03;;;16.26;100.00
25560;BME280;13450;49.374;8.584;2022-07-10T03:14:26;101252.47;;;16.26;100.00
25560;BME280;13450;49.374;8.584;2022-07-10T03:16:52;101252.28;;;16.27;100.00
25560;BME280;13450;49.374;8.584;2022-07-10T03:19:19;101252.69;;;16.24;100.00
25560;BME280;13450;49.374;8.584;2022-07-10T03:21:44;101251.03;;;16.23;100.00
25560;BME280;13450;49.374;8.584;2022-07-10T03:24:11;101261.81;;;16.23;98.73
25560;BME280;13450;49.374;8.584;2022-07-10T03:26:36;101247.72;;;16.21;100.00
25560;BME280;13450;49.374;8.584;2022-07-10T03:29:01;101251.44;;;16.20;100.00
25560;BME280;13450;49.374;8.584;2022-07-10T03:31:27;101264.94;;;16.13;100.00
25560;BME280;13450;49.374;8.584;2022-07-10T03:33:52;101261.38;;;16.13;100.00
25560;BME280;13450;49.374;8.584;2022-07-10T03:36:18;101263.44;;;16.11;100.00
25560;BME280;13450;49.374;8.584;2022-07-10T03:38:46;101263.88;;;16.07;100.00
25560;BME280;13450;49.374;8.584;2022-07-10T03:41:12;101253.47;;;16.04;100.00
25560;BME280;13450;49.374;8.584;2022-07-10T03:43:37;101256.34;;;16.03;100.00
25560;BME280;13450;49.374;8.584;2022-07-10T03:46:03;101254.50;;;16.03;100.00
25560;BME280;13450;49.374;8.584;2022-07-10T03:48:28;101262.78;;;16.02;100.00
25560;BME280;13450;49.374;8.584;2022-07-10T03:50:53;101263.41;;;15.97;100.00
25560;BME280;13450;49.374;8.584;2022-07-10T03:53:19;101270.41;;;15.91;100.00
25560;BME280;13450;49.374;8.584;2022-07-10T03:55:44;101264.16;;;15.91;100.00
25560;BME280;13450;49.374;8.584;2022-07-10T03:58:12;101266.69;;;15.92;100.00
25560;BME280;13450;49.374;8.584;2022-07-10T04:00:38;101262.31;;;15.91;100.00
25560;BME280;13450;49.374;8.584;2022-07-10T04:03:07;101263.13;;;15.92;100.00
25560;BME280;13450;49.374;8.584;2022-07-10T04:05:33;101265.81;;;15.92;100.00
25560;BME280;13450;49.374;8.584;2022-07-10T04:08:02;101260.00;;;15.88;100.00
25560;BME280;13450;49.374;8.584;2022-07-10T04:10:29;101264.34;;;15.82;100.00
25560;BME280;13450;49.374;8.584;2022-07-10T04:12:58;101263.31;;;15.84;100.00
25560;BME280;13450;49.374;8.584;2022-07-10T04:15:24;101266.41;;;15.80;100.00
25560;BME280;13450;49.374;8.584;2022-07-10T04:17:50;101265.75;;;15.78;100.00
25560;BME280;13450;49.374;8.584;2022-07-10T04:20:16;101259.56;;;15.78;100.00
25560;BME280;13450;49.374;8.584;2022-07-10T04:22:41;101267.84;;;15.76;100.00
25560;BME280;13450;49.374;8.584;2022-07-10T04:25:10;101270.94;;;15.73;100.00
25560;BME280;13450;49.374;8.584;2022-07-10T04:27:35;101268.25;;;15.73;100.00
25560;BME280;13450;49.374;8.584;2022-07-10T04:30:01;101267.81;;;15.69;100.00
25560;BME280;13450;49.374;8.584;2022-07-10T04:32:27;101268.00;;;15.68;100.00
25560;BME280;13450;49.374;8.584;2022-07-10T04:34:55;101286.47;;;15.64;100.00
25560;BME280;13450;49.374;8.584;2022-07-10T04:37:20;101278.56;;;15.63;100.00
25560;BME280;13450;49.374;8.584;2022-07-10T04:39:48;101282.91;;;15.64;100.00
25560;BME280;13450;49.374;8.584;2022-07-10T04:42:13;101281.47;;;15.61;100.00
25560;BME280;13450;49.374;8.584;2022-07-10T04:44:39;101276.06;;;15.61;100.00
25560;BME280;13450;49.374;8.584;2022-07-10T04:47:04;101278.94;;;15.60;100.00
25560;BME280;13450;49.374;8.584;2022-07-10T04:49:31;101281.41;;;15.54;100.00
25560;BME280;13450;49.374;8.584;2022-07-10T04:51:56;101291.16;;;15.55;100.00
25560;BME280;13450;49.374;8.584;2022-07-10T04:54:24;101288.47;;;15.55;100.00
25560;BME280;13450;49.374;8.584;2022-07-10T04:56:50;101294.28;;;15.52;100.00
25560;BME280;13450;49.374;8.584;2022-07-10T04:59:18;101287.19;;;15.51;100.00
25560;BME280;13450;49.374;8.584;2022-07-10T05:01:43;101290.31;;;15.48;100.00
25560;BME280;13450;49.374;8.584;2022-07-10T05:04:08;101288.00;;;15.45;100.00
25560;BME280;13450;49.374;8.584;2022-07-10T05:06:37;101291.69;;;15.37;100.00
25560;BME280;13450;49.374;8.584;2022-07-10T05:09:03;101287.09;;;15.38;100.00
25560;BME280;13450;49.374;8.584;2022-07-10T05:11:28;101287.53;;;15.35;100.00
25560;BME280;13450;49.374;8.584;2022-07-10T05:13:56;101291.69;;;15.37;100.00
25560;BME280;13450;49.374;8.584;2022-07-10T05:16:22;101307.50;;;15.47;100.00
25560;BME280;13450;49.374;8.584;2022-07-10T05:18:47;101310.03;;;15.55;100.00
25560;BME280;13450;49.374;8.584;2022-07-10T05:21:15;101310.56;;;15.66;100.00
25560;BME280;13450;49.374;8.584;2022-07-10T05:23:41;101317.44;;;15.75;100.00
25560;BME280;13450;49.374;8.584;2022-07-10T05:26:06;101311.06;;;15.83;99.79
25560;BME280;13450;49.374;8.584;2022-07-10T05:28:34;101304.22;;;15.87;99.74
25560;BME280;13450;49.374;8.584;2022-07-10T05:31:00;101310.66;;;15.86;99.75
25560;BME280;13450;49.374;8.584;2022-07-10T05:33:25;101310.06;;;15.91;97.49
25560;BME280;13450;49.374;8.584;2022-07-10T05:35:55;101322.50;;;15.92;97.47
25560;BME280;13450;49.374;8.584;2022-07-10T05:38:25;101326.97;;;16.00;97.80
25560;BME280;13450;49.374;8.584;2022-07-10T05:40:51;101319.88;;;15.99;96.72
25560;BME280;13450;49.374;8.584;2022-07-10T05:43:18;101327.78;;;16.00;96.21
25560;BME280;13450;49.374;8.584;2022-07-10T05:45:43;101320.38;;;16.16;94.48
25560;BME280;13450;49.374;8.584;2022-07-10T05:48:09;101324.75;;;16.17;93.63
25560;BME280;13450;49.374;8.584;2022-07-10T05:50:38;101321.66;;;16.20;91.65
25560;BME280;13450;49.374;8.584;2022-07-10T05:53:03;101324.81;;;16.30;92.63
25560;BME280;13450;49.374;8.584;2022-07-10T05:55:29;101326.28;;;16.40;91.10
25560;BME280;13450;49.374;8.584;2022-07-10T05:57:54;101333.38;;;16.54;88.64
25560;BME280;13450;49.374;8.584;2022-07-10T06:00:20;101334.25;;;16.62;87.96
25560;BME280;13450;49.374;8.584;2022-07-10T06:02:48;101334.84;;;16.50;88.95
25560;BME280;13450;49.374;8.584;2022-07-10T06:05:13;101332.09;;;16.43;88.71
25560;BME280;13450;49.374;8.584;2022-07-10T06:07:41;101326.72;;;16.43;89.20
25560;BME280;13450;49.374;8.584;2022-07-10T06:10:07;101338.19;;;16.52;88.30
25560;BME280;13450;49.374;8.584;2022-07-10T06:12:32;101344.19;;;16.54;87.48
25560;BME280;13450;49.374;8.584;2022-07-10T06:14:57;101337.72;;;16.48;86.12
25560;BME280;13450;49.374;8.584;2022-07-10T06:17:23;101337.13;;;16.46;85.46
25560;BME280;13450;49.374;8.584;2022-07-10T06:19:48;101338.75;;;16.41;83.42
25560;BME280;13450;49.374;8.584;2022-07-10T06:22:16;101345.00;;;16.41;82.93
25560;BME280;13450;49.374;8.584;2022-07-10T06:25:02;101347.28;;;16.51;83.81
25560;BME280;13450;49.374;8.584;2022-07-10T06:27:28;101340.28;;;16.64;82.44
25560;BME280;13450;49.374;8.584;2022-07-10T06:29:53;101346.13;;;16.74;81.61
25560;BME280;13450;49.374;8.584;2022-07-10T06:32:18;101349.88;;;16.86;80.72
25560;BME280;13450;49.374;8.584;2022-07-10T06:34:44;101350.09;;;16.92;79.78
25560;BME280;13450;49.374;8.584;2022-07-10T06:37:09;101348.50;;;17.04;76.54
25560;BME280;13450;49.374;8.584;2022-07-10T06:39:35;101348.94;;;17.08;76.62
25560;BME280;13450;49.374;8.584;2022-07-10T06:42:06;101350.16;;;17.05;75.35
25560;BME280;13450;49.374;8.584;2022-07-10T06:44:32;101342.63;;;16.94;75.61
25560;BME280;13450;49.374;8.584;2022-07-10T06:46:58;101344.06;;;16.90;75.52
25560;BME280;13450;49.374;8.584;2022-07-10T06:49:43;101335.97;;;16.90;75.79
25560;BME280;13450;49.374;8.584;2022-07-10T06:52:09;101351.34;;;16.89;75.81
25560;BME280;13450;49.374;8.584;2022-07-10T06:54:35;101346.78;;;16.90;74.76
25560;BME280;13450;49.374;8.584;2022-07-10T06:57:01;101343.03;;;16.91;74.85
25560;BME280;13450;49.374;8.584;2022-07-10T06:59:26;101345.53;;;16.99;74.51
25560;BME280;13450;49.374;8.584;2022-07-10T07:01:52;101343.69;;;16.99;71.71
25560;BME280;13450;49.374;8.584;2022-07-10T07:04:17;101343.47;;;17.01;70.52
25560;BME280;13450;49.374;8.584;2022-07-10T07:06:42;101348.03;;;16.94;70.43
25560;BME280;13450;49.374;8.584;2022-07-10T07:09:08;101344.69;;;16.85;70.39
25560;BME280;13450;49.374;8.584;2022-07-10T07:11:33;101350.53;;;16.89;70.43
25560;BME280;13450;49.374;8.584;2022-07-10T07:13:58;101354.53;;;17.06;69.62
25560;BME280;13450;49.374;8.584;2022-07-10T07:16:24;101360.75;;;17.13;68.21
25560;BME280;13450;49.374;8.584;2022-07-10T07:19:03;101356.41;;;17.12;66.43
25560;BME280;13450;49.374;8.584;2022-07-10T07:21:30;101350.41;;;17.24;62.26
25560;BME280;13450;49.374;8.584;2022-07-10T07:24:15;101351.00;;;17.53;61.23
25560;BME280;13450;49.374;8.584;2022-07-10T07:26:40;101350.91;;;17.94;59.84
25560;BME280;13450;49.374;8.584;2022-07-10T07:29:05;101351.91;;;18.20;57.79
25560;BME280;13450;49.374;8.584;2022-07-10T07:31:31;101356.97;;;18.02;55.42
25560;BME280;13450;49.374;8.584;2022-07-10T07:33:57;101356.78;;;17.77;56.92
25560;BME280;13450;49.374;8.584;2022-07-10T07:36:23;101362.63;;;17.74;57.89
25560;BME280;13450;49.374;8.584;2022-07-10T07:38:50;101367.59;;;17.77;57.50
25560;BME280;13450;49.374;8.584;2022-07-10T07:41:17;101366.34;;;17.86;57.66
25560;BME280;13450;49.374;8.584;2022-07-10T07:43:43;101360.50;;;17.89;56.44
25560;BME280;13450;49.374;8.584;2022-07-10T07:46:08;101363.00;;;18.11;56.16
25560;BME280;13450;49.374;8.584;2022-07-10T07:48:35;101370.41;;;18.36;55.25
25560;BME280;13450;49.374;8.584;2022-07-10T07:51:00;101377.47;;;18.44;52.34
25560;BME280;13450;49.374;8.584;2022-07-10T07:53:25;101371.00;;;18.38;52.55
25560;BME280;13450;49.374;8.584;2022-07-10T07:55:51;101376.94;;;18.61;51.91
25560;BME280;13450;49.374;8.584;2022-07-10T07:58:16;101368.63;;;18.55;50.40
25560;BME280;13450;49.374;8.584;2022-07-10T08:00:41;101364.00;;;18.69;49.60
25560;BME280;13450;49.374;8.584;2022-07-10T08:03:09;101374.75;;;18.83;50.13
25560;BME280;13450;49.374;8.584;2022-07-10T08:05:34;101363.38;;;19.00;48.62
25560;BME280;13450;49.374;8.584;2022-07-10T08:08:00;101366.47;;;19.03;48.85
25560;BME280;13450;49.374;8.584;2022-07-10T08:10:30;101354.94;;;19.15;47.53
25560;BME280;13450;49.374;8.584;2022-07-10T08:12:55;101364.41;;;19.31;46.84
25560;BME280;13450;49.374;8.584;2022-07-10T08:15:21;101355.06;;;19.52;45.77
25560;BME280;13450;49.374;8.584;2022-07-10T08:17:49;101355.75;;;19.85;45.16
25560;BME280;13450;49.374;8.584;2022-07-10T08:20:14;101361.50;;;19.77;46.20
25560;BME280;13450;49.374;8.584;2022-07-10T08:22:40;101356.09;;;19.51;45.41
25560;BME280;13450;49.374;8.584;2022-07-10T08:25:06;101358.72;;;19.14;45.89
25560;BME280;13450;49.374;8.584;2022-07-10T08:27:32;101349.72;;;18.81;47.07
25560;BME280;13450;49.374;8.584;2022-07-10T08:29:57;101348.78;;;18.68;47.46
25560;BME280;13450;49.374;8.584;2022-07-10T08:32:24;101350.66;;;18.68;47.24
25560;BME280;13450;49.374;8.584;2022-07-10T08:34:49;101351.91;;;18.65;47.92
25560;BME280;13450;49.374;8.584;2022-07-10T08:37:15;101348.78;;;18.68;47.93
25560;BME280;13450;49.374;8.584;2022-07-10T08:39:41;101344.38;;;18.67;47.66
25560;BME280;13450;49.374;8.584;2022-07-10T08:42:07;101334.28;;;18.81;47.69
25560;BME280;13450;49.374;8.584;2022-07-10T08:44:35;101339.84;;;18.93;46.89
25560;BME280;13450;49.374;8.584;2022-07-10T08:47:02;101343.78;;;18.98;47.23
25560;BME280;13450;49.374;8.584;2022-07-10T08:49:29;101338.19;;;19.25;45.84
25560;BME280;13450;49.374;8.584;2022-07-10T08:54:55;101346.47;;;19.30;44.61
25560;BME280;13450;49.374;8.584;2022-07-10T08:57:22;101339.16;;;19.56;43.29
25560;BME280;13450;49.374;8.584;2022-07-10T08:59:48;101347.75;;;19.71;43.61
25560;BME280;13450;49.374;8.584;2022-07-10T09:02:14;101336.63;;;19.98;42.32
25560;BME280;13450;49.374;8.584;2022-07-10T09:04:39;101330.25;;;20.42;42.43
25560;BME280;13450;49.374;8.584;2022-07-10T09:07:04;101336.78;;;20.84;42.50
25560;BME280;13450;49.374;8.584;2022-07-10T09:09:50;101332.06;;;20.79;41.19
25560;BME280;13450;49.374;8.584;2022-07-10T09:12:19;101347.41;;;20.73;41.22
25560;BME280;13450;49.374;8.584;2022-07-10T09:14:46;101340.63;;;20.64;41.61
25560;BME280;13450;49.374;8.584;2022-07-10T09:17:12;101340.22;;;20.48;41.32
25560;BME280;13450;49.374;8.584;2022-07-10T09:19:39;101345.50;;;20.43;41.91
25560;BME280;13450;49.374;8.584;2022-07-10T09:22:06;101342.94;;;20.30;43.34
25560;BME280;13450;49.374;8.584;2022-07-10T09:24:42;101333.75;;;20.31;42.62
25560;BME280;13450;49.374;8.584;2022-07-10T09:27:09;101345.78;;;20.04;42.24
25560;BME280;13450;49.374;8.584;2022-07-10T09:29:48;101344.44;;;19.69;42.66
25560;BME280;13450;49.374;8.584;2022-07-10T09:32:19;101338.06;;;19.38;43.49
25560;BME280;13450;49.374;8.584;2022-07-10T09:34:46;101336.72;;;19.47;42.11
25560;BME280;13450;49.374;8.584;2022-07-10T09:37:25;101340.25;;;19.73;41.72
25560;BME280;13450;49.374;8.584;2022-07-10T09:42:40;101342.31;;;19.71;42.21
25560;BME280;13450;49.374;8.584;2022-07-10T09:50:32;101331.53;;;20.09;41.27
25560;BME280;13450;49.374;8.584;2022-07-10T09:53:07;101326.88;;;20.47;41.26
25560;BME280;13450;49.374;8.584;2022-07-10T09:55:37;101333.59;;;20.44;40.12
25560;BME280;13450;49.374;8.584;2022-07-10T09:58:06;101322.03;;;20.61;40.77
25560;BME280;13450;49.374;8.584;2022-07-10T10:00:35;101339.03;;;20.44;39.71
25560;BME280;13450;49.374;8.584;2022-07-10T10:03:03;101335.91;;;20.41;39.46
25560;BME280;13450;49.374;8.584;2022-07-10T10:05:54;101333.31;;;20.15;39.94
25560;BME280;13450;49.374;8.584;2022-07-10T10:08:25;101329.81;;;20.45;39.68
25560;BME280;13450;49.374;8.584;2022-07-10T10:10:53;101325.72;;;20.97;38.84
25560;BME280;13450;49.374;8.584;2022-07-10T10:13:22;101327.41;;;21.34;38.51
25560;BME280;13450;49.374;8.584;2022-07-10T10:15:50;101325.53;;;21.59;38.70
25560;BME280;13450;49.374;8.584;2022-07-10T10:18:25;101323.16;;;21.74;37.56
25560;BME280;13450;49.374;8.584;2022-07-10T10:20:55;101318.56;;;21.75;36.94
25560;BME280;13450;49.374;8.584;2022-07-10T10:23:22;101312.44;;;22.08;37.07
25560;BME280;13450;49.374;8.584;2022-07-10T10:25:53;101312.34;;;22.32;36.70
25560;BME280;13450;49.374;8.584;2022-07-10T10:28:25;101301.38;;;22.56;35.85
25560;BME280;13450;49.374;8.584;2022-07-10T10:31:00;101302.22;;;22.74;36.02
25560;BME280;13450;49.374;8.584;2022-07-10T10:36:01;101306.03;;;22.90;35.90
25560;BME280;13450;49.374;8.584;2022-07-10T10:49:15;101304.44;;;22.19;36.33
25560;BME280;13450;49.374;8.584;2022-07-10T10:52:04;101308.00;;;22.48;35.58
25560;BME280;13450;49.374;8.584;2022-07-10T11:00:00;101294.09;;;23.13;35.28
25560;BME280;13450;49.374;8.584;2022-07-10T11:02:28;101303.00;;;23.60;34.88
25560;BME280;13450;49.374;8.584;2022-07-10T11:08:03;101302.72;;;23.22;34.37
25560;BME280;13450;49.374;8.584;2022-07-10T11:13:01;101299.97;;;23.79;34.03
25560;BME280;13450;49.374;8.584;2022-07-10T11:15:28;101303.91;;;24.33;32.48
25560;BME280;13450;49.374;8.584;2022-07-10T11:17:58;101304.78;;;24.72;32.01
25560;BME280;13450;49.374;8.584;2022-07-10T11:20:26;101306.94;;;25.35;30.88
25560;BME280;13450;49.374;8.584;2022-07-10T11:28:32;101294.50;;;27.23;27.84
25560;BME280;13450;49.374;8.584;2022-07-10T11:31:01;101301.16;;;28.83;25.74
25560;BME280;13450;49.374;8.584;2022-07-10T11:33:26;101289.81;;;30.84;25.54
25560;BME280;13450;49.374;8.584;2022-07-10T11:35:53;101295.72;;;30.25;24.07
25560;BME280;13450;49.374;8.584;2022-07-10T11:38:20;101291.03;;;31.25;23.24
25560;BME280;13450;49.374;8.584;2022-07-10T11:40:45;101297.84;;;30.47;23.40
25560;BME280;13450;49.374;8.584;2022-07-10T11:43:10;101301.63;;;31.04;23.34
25560;BME280;13450;49.374;8.584;2022-07-10T11:45:39;101290.16;;;32.09;21.70
25560;BME280;13450;49.374;8.584;2022-07-10T11:48:05;101291.19;;;32.36;21.44
25560;BME280;13450;49.374;8.584;2022-07-10T11:50:37;101282.56;;;33.15;20.83
25560;BME280;13450;49.374;8.584;2022-07-10T11:53:03;101287.47;;;33.59;20.39
25560;BME280;13450;49.374;8.584;2022-07-10T11:55:28;101269.88;;;33.99;20.95
25560;BME280;13450;49.374;8.584;2022-07-10T11:57:55;101281.31;;;31.42;22.40
25560;BME280;13450;49.374;8.584;2022-07-10T12:02:51;101275.72;;;29.46;24.96
25560;BME280;13450;49.374;8.584;2022-07-10T12:05:33;101276.56;;;31.00;23.34
25560;BME280;13450;49.374;8.584;2022-07-10T12:07:59;101280.63;;;31.36;22.35
25560;BME280;13450;49.374;8.584;2022-07-10T12:10:31;101289.38;;;30.05;23.73
25560;BME280;13450;49.374;8.584;2022-07-10T12:13:07;101284.78;;;28.23;25.61
25560;BME280;13450;49.374;8.584;2022-07-10T12:15:37;101288.66;;;28.62;25.57
25560;BME280;13450;49.374;8.584;2022-07-10T12:18:07;101259.81;;;29.43;25.02
25560;BME280;13450;49.374;8.584;2022-07-10T12:20:33;101266.44;;;30.96;22.73
25560;BME280;13450;49.374;8.584;2022-07-10T12:22:59;101271.63;;;30.83;22.79
25560;BME280;13450;49.374;8.584;2022-07-10T12:25:25;101267.75;;;32.42;21.55
25560;BME280;13450;49.374;8.584;2022-07-10T12:27:57;101261.69;;;33.09;21.33
25560;BME280;13450;49.374;8.584;2022-07-10T12:30:40;101266.50;;;30.90;22.64
25560;BME280;13450;49.374;8.584;2022-07-10T12:33:16;101253.22;;;31.77;21.50
25560;BME280;13450;49.374;8.584;2022-07-10T12:35:59;101254.94;;;30.88;23.31
25560;BME280;13450;49.374;8.584;2022-07-10T12:38:28;101260.09;;;34.46;19.78
25560;BME280;13450;49.374;8.584;2022-07-10T12:41:11;101258.59;;;32.56;21.39
25560;BME280;13450;49.374;8.584;2022-07-10T12:43:37;101264.06;;;31.03;22.97
25560;BME280;13450;49.374;8.584;2022-07-10T12:48:40;101256.63;;;30.18;23.99
25560;BME280;13450;49.374;8.584;2022-07-10T12:51:19;101269.00;;;29.08;25.30
25560;BME280;13450;49.374;8.584;2022-07-10T12:53:45;101255.09;;;29.68;25.15
25560;BME280;13450;49.374;8.584;2022-07-10T12:56:34;101253.50;;;31.89;22.99
25560;BME280;13450;49.374;8.584;2022-07-10T12:59:01;101259.75;;;33.18;21.16
25560;BME280;13450;49.374;8.584;2022-07-10T13:01:28;101254.47;;;32.44;23.63
25560;BME280;13450;49.374;8.584;2022-07-10T13:04:01;101251.44;;;33.94;20.86
25560;BME280;13450;49.374;8.584;2022-07-10T13:06:32;101249.78;;;33.58;22.76
25560;BME280;13450;49.374;8.584;2022-07-10T13:08:58;101252.66;;;32.03;22.45
25560;BME280;13450;49.374;8.584;2022-07-10T13:11:24;101255.22;;;31.85;22.85
25560;BME280;13450;49.374;8.584;2022-07-10T13:13:50;101252.22;;;30.69;24.39
25560;BME280;13450;49.374;8.584;2022-07-10T13:16:18;101248.84;;;28.83;25.79
25560;BME280;13450;49.374;8.584;2022-07-10T13:18:44;101250.06;;;27.87;27.42
25560;BME280;13450;49.374;8.584;2022-07-10T13:21:11;101257.19;;;27.16;29.16
25560;BME280;13450;49.374;8.584;2022-07-10T13:23:37;101250.91;;;26.64;30.64
25560;BME280;13450;49.374;8.584;2022-07-10T13:26:06;101243.16;;;26.24;30.43
25560;BME280;13450;49.374;8.584;2022-07-10T13:28:34;101242.53;;;25.81;30.38
25560;BME280;13450;49.374;8.584;2022-07-10T13:31:00;101253.19;;;25.77;30.27
25560;BME280;13450;49.374;8.584;2022-07-10T13:33:25;101242.47;;;25.65;31.54